Airfield :
LOGIN :

Register | Disclaimer

   EN    FR    IT 

 










Legend :    VFR   Marginal VFR   IFR   Intensive IFR   Very Intensive IFR
Visi :
Ceiling :
>= 8 km
>= 3000ft
5 to 8 km
1000 to 3000 ft
1500m to 5 km
500 to 1000 ft
800 to 1500m
200 to 500 ft
< 800m
< 200 ft
Symbols :   Thunderstorms  Fog  Heavy snow  Heavy precipitations  Wind > 20 kt
SIGMETs :     Misc.  Thunderstorms  Icing  Turbulence  Mountain Waves  Volcanic Ashes







- Airport Elevation : 36 ft
- IATA code : LTQ
- Download approach charts


LFAT - Le Touquet

CURRENT METAR :
  • 241330Z AUTO 15008KT 110V180 CAVOK 21/12 Q1020 NOSIG

EXPIRED METARs :
  • 241300Z AUTO 12009KT 100V160 CAVOK 21/13 Q1020 NOSIG
  • 241230Z AUTO 14010KT 100V170 CAVOK 20/11 Q1020 NOSIG
  • 241200Z AUTO 14010KT CAVOK 20/12 Q1020 NOSIG
  • 241130Z AUTO 13010KT 100V160 9000 NSC 20/12 Q1020 NOSIG
  • 241100Z AUTO 13008KT 090V160 9000 NSC 19/12 Q1020 NOSIG

TAF TAF LFAT
Valid from the 24 at 12:00 until the 24 at 21:00 UTC


241100Z 2412/2421 13008KT CAVOK
ATIS : +33 3 21 06 62 84
No reported NOTAMs for that airfield.



MET'MAP, your aeronautical weather chart ! - Copyright ORBIFLY December 2007 - Disclaimer

ORBIFLY MET'MAP TEAM :

Programming & Development : Alexandra Zaïnal
Concept & Development : Baudouin d'Aumeries
Co-Development & Prog : Marc-Olivier Méhu
Technical & hardware support : Manuel Goepfert

Contact : metmap@orbifly.com




SOURCES & CREDITS :

   NOAA